createdAt,value
2022-09-25T00:01:31.166Z,9.03
2022-09-25T00:03:57.531Z,10.53
2022-09-25T00:06:25.149Z,9.00
2022-09-25T00:08:52.020Z,8.10
2022-09-25T00:11:19.992Z,9.13
2022-09-25T00:13:46.924Z,8.27
2022-09-25T00:16:14.737Z,9.97
2022-09-25T00:19:00.284Z,9.40
2022-09-25T00:21:31.050Z,10.00
2022-09-25T00:24:00.543Z,7.87
2022-09-25T00:26:28.618Z,7.83
2022-09-25T00:28:55.561Z,7.83
2022-09-25T00:31:24.551Z,8.43
2022-09-25T00:33:56.669Z,7.57
2022-09-25T00:36:23.043Z,7.57
2022-09-25T00:38:49.461Z,7.63
2022-09-25T00:41:17.008Z,7.57
2022-09-25T00:43:48.826Z,7.93
2022-09-25T00:46:18.368Z,6.27
2022-09-25T00:48:57.256Z,8.00
2022-09-25T00:51:28.933Z,6.23
2022-09-25T00:54:01.180Z,6.17
2022-09-25T00:56:29.692Z,7.90
2022-09-25T00:58:56.032Z,7.07
2022-09-25T01:01:23.225Z,6.67
2022-09-25T01:03:49.628Z,7.33
2022-09-25T01:06:16.881Z,6.97
2022-09-25T01:08:45.869Z,6.47
2022-09-25T01:11:12.219Z,6.53
2022-09-25T01:13:41.294Z,7.10
2022-09-25T01:16:17.945Z,7.37
2022-09-25T01:18:51.090Z,7.27
2022-09-25T01:21:30.980Z,7.73
2022-09-25T01:24:03.540Z,7.77
2022-09-25T01:26:32.944Z,6.93
2022-09-25T01:29:16.215Z,7.97
2022-09-25T01:31:47.687Z,8.20
2022-09-25T01:34:20.600Z,9.43
2022-09-25T01:36:58.771Z,7.93
2022-09-25T01:39:29.970Z,7.00
2022-09-25T01:42:00.390Z,7.87
2022-09-25T01:44:29.470Z,6.80
2022-09-25T01:46:59.278Z,6.03
2022-09-25T01:49:44.543Z,6.60
2022-09-25T01:52:13.984Z,6.67
2022-09-25T01:54:42.635Z,5.80
2022-09-25T01:57:10.701Z,6.97
2022-09-25T01:59:53.932Z,6.13
2022-09-25T02:02:22.507Z,5.83
2022-09-25T02:04:54.382Z,5.67
2022-09-25T02:07:24.332Z,6.93
2022-09-25T02:09:52.686Z,7.00
2022-09-25T02:12:21.751Z,7.30
2022-09-25T02:14:53.209Z,6.90
2022-09-25T02:17:41.781Z,7.83
2022-09-25T02:20:27.612Z,7.67
2022-09-25T02:22:55.254Z,6.83
2022-09-25T02:25:32.926Z,8.60
2022-09-25T02:27:59.513Z,9.87
2022-09-25T02:30:25.903Z,8.13
2022-09-25T02:32:53.637Z,8.03
2022-09-25T02:35:20.103Z,7.47
2022-09-25T02:37:46.439Z,7.37
2022-09-25T02:40:12.835Z,8.47
2022-09-25T02:42:48.245Z,9.50
2022-09-25T02:45:33.096Z,10.60
2022-09-25T02:48:22.001Z,7.30
2022-09-25T02:50:54.653Z,7.93
2022-09-25T02:53:24.305Z,8.37
2022-09-25T02:55:53.516Z,8.67
2022-09-25T02:58:39.357Z,6.73
2022-09-25T03:01:07.013Z,6.73
2022-09-25T03:03:33.727Z,8.17
2022-09-25T03:06:00.969Z,6.53
2022-09-25T03:08:41.479Z,7.27
2022-09-25T03:11:12.409Z,7.43
2022-09-25T03:13:39.654Z,7.00
2022-09-25T03:16:40.398Z,7.67
2022-09-25T03:19:07.185Z,6.83
2022-09-25T03:21:33.606Z,7.17
2022-09-25T03:24:00.946Z,7.20
2022-09-25T03:26:27.773Z,9.23
2022-09-25T03:28:54.293Z,8.07
2022-09-25T03:31:21.046Z,8.20
2022-09-25T03:33:48.016Z,6.80
2022-09-25T03:36:18.991Z,7.17
2022-09-25T03:38:46.205Z,7.67
2022-09-25T03:41:13.521Z,6.90
2022-09-25T03:43:41.573Z,7.77
2022-09-25T03:46:09.906Z,7.53
2022-09-25T03:48:36.438Z,7.93
2022-09-25T03:51:03.546Z,8.40
2022-09-25T03:53:33.519Z,9.03
2022-09-25T03:56:00.545Z,7.53
2022-09-25T03:58:26.897Z,8.43
2022-09-25T04:00:57.158Z,7.63
2022-09-25T04:03:28.388Z,6.60
2022-09-25T04:05:56.050Z,7.90
2022-09-25T04:08:23.313Z,7.57
2022-09-25T04:10:49.669Z,7.27
2022-09-25T04:13:17.003Z,6.73
2022-09-25T04:15:43.353Z,8.23
2022-09-25T04:18:09.723Z,6.87
2022-09-25T04:20:37.504Z,6.47
2022-09-25T04:23:04.298Z,7.37
2022-09-25T04:25:30.750Z,6.60
2022-09-25T04:27:58.023Z,7.10
2022-09-25T04:30:25.137Z,6.93
2022-09-25T04:33:09.891Z,9.03
2022-09-25T04:35:36.246Z,6.47
2022-09-25T04:38:02.641Z,6.90
2022-09-25T04:40:29.982Z,6.20
2022-09-25T04:42:57.333Z,9.10
2022-09-25T04:45:23.798Z,7.00
2022-09-25T04:47:50.139Z,7.47
2022-09-25T04:50:16.483Z,6.93
2022-09-25T04:52:42.815Z,6.47
2022-09-25T04:55:09.274Z,7.13
2022-09-25T04:57:57.247Z,7.07
2022-09-25T05:00:22.417Z,6.93
2022-09-25T05:02:48.892Z,7.07
2022-09-25T05:05:15.845Z,8.13
2022-09-25T05:07:55.396Z,7.80
2022-09-25T05:10:27.678Z,6.70
2022-09-25T05:12:54.517Z,7.27
2022-09-25T05:15:21.097Z,6.40
2022-09-25T05:17:47.430Z,6.53
2022-09-25T05:20:13.824Z,9.10
2022-09-25T05:22:40.171Z,6.33
2022-09-25T05:25:06.805Z,7.83
2022-09-25T05:27:34.119Z,8.20
2022-09-25T05:30:00.977Z,7.10
2022-09-25T05:32:27.356Z,7.37
2022-09-25T05:34:53.743Z,7.13
2022-09-25T05:37:20.075Z,8.27
2022-09-25T05:39:46.431Z,7.20
2022-09-25T05:42:13.732Z,7.93
2022-09-25T05:44:41.946Z,8.40
2022-09-25T05:47:08.347Z,8.37
2022-09-25T05:49:34.691Z,9.63
2022-09-25T05:52:01.166Z,7.43
2022-09-25T05:54:27.493Z,8.33
2022-09-25T05:56:54.479Z,8.37
2022-09-25T05:59:20.814Z,8.73
2022-09-25T06:01:47.225Z,9.13
2022-09-25T06:04:13.697Z,9.40
2022-09-25T06:06:40.143Z,9.67
2022-09-25T06:09:06.510Z,9.03
2022-09-25T06:11:32.978Z,9.53
2022-09-25T06:13:59.327Z,7.10
2022-09-25T06:16:26.027Z,8.40
2022-09-25T06:18:52.953Z,7.03
2022-09-25T06:21:19.283Z,10.73
2022-09-25T06:23:46.719Z,9.53
2022-09-25T06:26:14.080Z,8.40
2022-09-25T06:28:40.423Z,8.10
2022-09-25T06:31:07.087Z,10.57
2022-09-25T06:33:33.476Z,12.77
2022-09-25T06:36:00.722Z,15.00
2022-09-25T06:38:27.599Z,13.00
2022-09-25T06:40:54.957Z,12.03
2022-09-25T06:43:23.683Z,14.50
2022-09-25T06:45:51.271Z,12.60
2022-09-25T06:48:18.102Z,12.07
2022-09-25T06:50:46.492Z,13.73
2022-09-25T06:53:13.436Z,12.67
2022-09-25T06:55:40.061Z,12.67
2022-09-25T06:58:08.341Z,12.93
2022-09-25T07:00:35.106Z,11.00
2022-09-25T07:03:20.423Z,10.70
2022-09-25T07:05:48.193Z,13.67
2022-09-25T07:08:16.170Z,14.37
2022-09-25T07:10:52.994Z,12.47
2022-09-25T07:13:24.393Z,12.83
2022-09-25T07:15:54.368Z,12.37
2022-09-25T07:18:21.366Z,11.93
2022-09-25T07:20:48.132Z,12.20
2022-09-25T07:23:15.286Z,12.83
2022-09-25T07:25:41.607Z,12.27
2022-09-25T07:28:07.956Z,10.93
2022-09-25T07:30:34.309Z,11.20
2022-09-25T07:33:00.890Z,11.33
2022-09-25T07:35:27.258Z,12.03
2022-09-25T07:37:57.509Z,8.87
2022-09-25T07:40:26.307Z,10.53
2022-09-25T07:42:52.971Z,9.73
2022-09-25T07:45:19.343Z,8.80
2022-09-25T07:47:45.682Z,7.13
2022-09-25T07:50:15.384Z,7.17
2022-09-25T07:52:42.173Z,7.40
2022-09-25T07:55:09.027Z,7.37
2022-09-25T07:57:35.517Z,7.27
2022-09-25T08:00:01.981Z,7.63
2022-09-25T08:02:38.323Z,7.77
2022-09-25T08:05:04.923Z,7.13
2022-09-25T08:07:31.388Z,7.23
2022-09-25T08:09:57.764Z,5.27
2022-09-25T08:12:25.203Z,5.10
2022-09-25T08:14:51.921Z,5.33
2022-09-25T08:17:19.546Z,4.30
2022-09-25T08:19:46.095Z,5.17
2022-09-25T08:22:12.621Z,4.00
2022-09-25T08:24:40.245Z,3.53
2022-09-25T08:27:07.864Z,3.70
2022-09-25T08:29:34.400Z,3.40
2022-09-25T08:32:01.497Z,4.10
2022-09-25T08:34:40.523Z,4.00
2022-09-25T08:37:08.219Z,3.93
2022-09-25T08:39:34.630Z,4.27
2022-09-25T08:42:01.853Z,9.50
2022-09-25T08:44:31.189Z,7.90
2022-09-25T08:47:27.611Z,5.60
2022-09-25T08:50:00.206Z,5.37
2022-09-25T08:52:26.620Z,4.83
2022-09-25T08:54:54.413Z,4.23
2022-09-25T08:57:37.545Z,3.03
2022-09-25T09:00:09.402Z,3.90
2022-09-25T09:02:43.844Z,3.60
2022-09-25T09:05:16.031Z,3.00
2022-09-25T09:07:44.377Z,3.17
2022-09-25T09:10:30.408Z,2.37
2022-09-25T09:13:02.402Z,2.63
2022-09-25T09:15:40.141Z,2.47
2022-09-25T09:18:16.749Z,2.30
2022-09-25T09:20:46.002Z,17.40
2022-09-25T09:23:17.408Z,12.57
2022-09-25T09:26:03.768Z,6.10
2022-09-25T09:28:39.306Z,3.00
2022-09-25T09:31:11.711Z,2.77
2022-09-25T09:33:49.150Z,2.00
2022-09-25T09:36:18.473Z,2.40
2022-09-25T09:39:04.107Z,2.17
2022-09-25T09:41:33.680Z,2.37
2022-09-25T09:44:19.205Z,2.30
2022-09-25T09:46:53.537Z,2.00
2022-09-25T09:49:29.648Z,1.77
2022-09-25T09:52:00.625Z,2.03
2022-09-25T09:54:39.220Z,1.80
2022-09-25T09:57:10.278Z,2.73
2022-09-25T09:59:43.865Z,1.70
2022-09-25T10:02:30.777Z,1.57
2022-09-25T10:04:58.397Z,3.67
2022-09-25T10:07:26.953Z,1.53
2022-09-25T10:09:54.382Z,1.37
2022-09-25T10:12:32.762Z,2.70
2022-09-25T10:15:01.999Z,1.60
2022-09-25T10:17:29.559Z,1.93
2022-09-25T10:20:04.106Z,1.60
2022-09-25T10:22:36.091Z,1.43
2022-09-25T10:25:02.610Z,1.50
2022-09-25T10:27:36.662Z,1.90
2022-09-25T10:30:09.133Z,1.60
2022-09-25T10:32:56.474Z,1.50
2022-09-25T10:35:39.072Z,1.87
2022-09-25T10:38:16.625Z,1.80
2022-09-25T10:40:47.491Z,1.70
2022-09-25T10:43:23.444Z,2.50
2022-09-25T10:45:54.073Z,2.07
2022-09-25T10:48:44.407Z,1.77
2022-09-25T10:51:11.407Z,2.20
2022-09-25T10:53:37.922Z,1.80
2022-09-25T10:56:08.449Z,3.50
2022-09-25T10:58:40.981Z,2.73
2022-09-25T11:01:09.160Z,2.57
2022-09-25T11:03:41.589Z,2.63
2022-09-25T11:06:09.903Z,2.53
2022-09-25T11:08:38.824Z,4.67
2022-09-25T11:11:05.828Z,5.63
2022-09-25T11:13:45.797Z,3.47
2022-09-25T11:16:12.211Z,2.70
2022-09-25T11:18:41.709Z,3.13
2022-09-25T11:21:26.895Z,3.10
2022-09-25T11:24:03.802Z,3.50
2022-09-25T11:26:40.463Z,3.03
2022-09-25T11:29:12.892Z,3.20
2022-09-25T11:31:45.138Z,5.20
2022-09-25T11:34:14.259Z,2.80
2022-09-25T11:37:07.139Z,3.53
2022-09-25T11:39:57.244Z,3.70
2022-09-25T11:42:26.529Z,3.40
2022-09-25T11:44:57.328Z,3.90
2022-09-25T11:47:33.883Z,4.00
2022-09-25T11:50:02.128Z,4.17
2022-09-25T11:52:40.997Z,4.30
2022-09-25T11:55:07.411Z,3.80
2022-09-25T11:57:34.903Z,4.30
2022-09-25T12:00:17.680Z,4.93
2022-09-25T12:02:44.050Z,5.23
2022-09-25T12:05:35.104Z,5.47
2022-09-25T12:08:09.004Z,5.50
2022-09-25T12:10:45.992Z,5.30
2022-09-25T12:13:15.376Z,5.00
2022-09-25T12:15:46.339Z,5.23
2022-09-25T12:18:12.632Z,5.63
2022-09-25T12:20:45.977Z,6.90
2022-09-25T12:23:13.345Z,6.80
2022-09-25T12:25:47.955Z,5.43
2022-09-25T12:28:40.834Z,5.90
2022-09-25T12:31:14.412Z,6.07
2022-09-25T12:33:40.766Z,6.77
2022-09-25T12:36:15.102Z,6.70
2022-09-25T12:38:44.449Z,6.80
2022-09-25T12:41:17.797Z,7.10
2022-09-25T12:43:56.660Z,7.67
2022-09-25T12:46:27.934Z,6.30
2022-09-25T12:49:20.664Z,7.10
2022-09-25T12:51:50.029Z,5.83
2022-09-25T12:54:24.079Z,4.07
2022-09-25T12:56:51.957Z,2.80
2022-09-25T12:59:21.557Z,2.00
2022-09-25T13:02:00.920Z,5.23
2022-09-25T13:04:37.094Z,2.60
2022-09-25T13:07:03.948Z,6.43
2022-09-25T13:09:42.180Z,2.40
2022-09-25T13:12:10.788Z,2.20
2022-09-25T13:14:42.626Z,2.97
2022-09-25T13:17:10.945Z,1.83
2022-09-25T13:19:37.349Z,1.50
2022-09-25T13:22:05.700Z,1.70
2022-09-25T13:24:39.203Z,1.30
2022-09-25T13:27:10.019Z,2.50
2022-09-25T13:29:38.811Z,1.50
2022-09-25T13:32:15.827Z,1.40
2022-09-25T13:34:42.878Z,1.40
2022-09-25T13:37:10.535Z,1.47
2022-09-25T13:39:59.634Z,2.23
2022-09-25T13:42:52.757Z,1.27
2022-09-25T13:45:22.326Z,1.60
2022-09-25T13:47:53.108Z,1.30
2022-09-25T13:50:23.286Z,1.27
2022-09-25T13:53:09.558Z,1.40
2022-09-25T13:56:02.801Z,1.73
2022-09-25T13:58:49.106Z,1.90
2022-09-25T14:01:32.367Z,1.37
2022-09-25T14:03:58.797Z,2.83
2022-09-25T14:06:26.936Z,1.30
2022-09-25T14:08:55.140Z,1.90
2022-09-25T14:11:31.459Z,2.40
2022-09-25T14:14:00.025Z,2.07
2022-09-25T14:16:26.385Z,2.13
2022-09-25T14:18:55.284Z,2.23
2022-09-25T14:21:22.292Z,2.17
2022-09-25T14:23:49.958Z,2.80
2022-09-25T14:26:22.106Z,3.83
2022-09-25T14:28:49.328Z,3.60
2022-09-25T14:31:24.875Z,5.53
2022-09-25T14:33:51.704Z,3.40
2022-09-25T14:36:18.035Z,4.37
2022-09-25T14:38:56.544Z,2.20
2022-09-25T14:41:49.362Z,2.30
2022-09-25T14:44:23.569Z,4.17
2022-09-25T14:46:50.699Z,3.03
2022-09-25T14:49:25.712Z,3.33
2022-09-25T14:51:53.866Z,3.37
2022-09-25T14:54:22.988Z,2.50
2022-09-25T14:56:53.069Z,2.57
2022-09-25T14:59:23.869Z,2.93
2022-09-25T15:01:52.191Z,5.03
2022-09-25T15:04:32.298Z,2.50
2022-09-25T15:07:03.315Z,3.10
2022-09-25T15:09:29.622Z,4.63
2022-09-25T15:11:56.131Z,3.87
2022-09-25T15:14:22.489Z,5.20
2022-09-25T15:17:07.528Z,3.77
2022-09-25T15:19:36.229Z,2.90
2022-09-25T15:22:07.991Z,3.53
2022-09-25T15:24:35.593Z,2.80
2022-09-25T15:27:03.845Z,3.67
2022-09-25T15:29:37.036Z,3.97
2022-09-25T15:32:05.074Z,3.53
2022-09-25T15:34:32.070Z,4.23
2022-09-25T15:37:13.784Z,5.73
2022-09-25T15:39:41.220Z,5.37
2022-09-25T15:42:07.586Z,5.10
2022-09-25T15:44:33.957Z,4.73
2022-09-25T15:47:02.005Z,5.40
2022-09-25T15:49:31.804Z,5.43
2022-09-25T15:52:00.892Z,4.63
2022-09-25T15:54:35.603Z,5.63
2022-09-25T15:57:03.721Z,5.47
2022-09-25T15:59:33.273Z,5.13
2022-09-25T16:02:25.084Z,5.33
2022-09-25T16:04:51.853Z,4.87
2022-09-25T16:07:22.913Z,6.60
2022-09-25T16:09:49.838Z,7.80
2022-09-25T16:12:20.479Z,4.77
2022-09-25T16:14:47.445Z,6.73
2022-09-25T16:17:21.966Z,5.47
2022-09-25T16:20:17.704Z,5.47
2022-09-25T16:22:49.462Z,4.63
2022-09-25T16:25:17.549Z,3.30
2022-09-25T16:27:44.862Z,7.80
2022-09-25T16:30:22.304Z,7.37
2022-09-25T16:32:49.700Z,5.57
2022-09-25T16:35:20.894Z,5.33
2022-09-25T16:37:50.532Z,5.87
2022-09-25T16:40:33.688Z,6.43
2022-09-25T16:43:01.281Z,4.97
2022-09-25T16:45:31.212Z,7.33
2022-09-25T16:47:58.533Z,6.17
2022-09-25T16:50:25.893Z,4.27
2022-09-25T16:52:52.264Z,4.83
2022-09-25T16:55:27.338Z,5.97
2022-09-25T16:57:54.448Z,6.40
2022-09-25T17:00:25.545Z,5.40
2022-09-25T17:02:52.608Z,5.80
2022-09-25T17:05:20.711Z,7.30
2022-09-25T17:07:48.124Z,7.83
2022-09-25T17:10:19.386Z,8.53
2022-09-25T17:12:51.241Z,5.73
2022-09-25T17:15:23.457Z,6.27
2022-09-25T17:17:54.370Z,6.10
2022-09-25T17:20:22.939Z,6.93
2022-09-25T17:22:49.954Z,4.77
2022-09-25T17:25:19.400Z,4.80
2022-09-25T17:27:45.767Z,4.83
2022-09-25T17:30:12.271Z,6.60
2022-09-25T17:32:38.644Z,8.00
2022-09-25T17:35:14.755Z,8.10
2022-09-25T17:37:41.160Z,8.07
2022-09-25T17:40:07.725Z,6.30
2022-09-25T17:42:34.078Z,6.10
2022-09-25T17:45:00.526Z,5.57
2022-09-25T17:47:27.401Z,8.07
2022-09-25T17:49:53.747Z,9.03
2022-09-25T17:52:20.501Z,8.23
2022-09-25T17:54:46.836Z,9.43
2022-09-25T17:57:13.295Z,5.97
2022-09-25T17:59:39.908Z,6.40
2022-09-25T18:02:11.013Z,9.43
2022-09-25T18:04:37.438Z,10.83
2022-09-25T18:07:03.902Z,12.30
2022-09-25T18:09:30.239Z,12.30
2022-09-25T18:11:56.575Z,13.00
2022-09-25T18:14:22.963Z,16.63
2022-09-25T18:16:49.313Z,12.67
2022-09-25T18:19:36.009Z,30.40
2022-09-25T18:22:17.587Z,25.67
2022-09-25T18:24:44.997Z,29.87
2022-09-25T18:27:12.147Z,26.03
2022-09-25T18:29:38.720Z,21.07
2022-09-25T18:32:05.157Z,19.53
2022-09-25T18:34:31.489Z,19.80
2022-09-25T18:36:57.877Z,18.20
2022-09-25T18:39:24.369Z,13.90
2022-09-25T18:41:50.790Z,14.23
2022-09-25T18:44:19.406Z,16.07
2022-09-25T18:46:45.812Z,18.27
2022-09-25T18:49:12.546Z,14.47
2022-09-25T18:51:39.890Z,17.13
2022-09-25T18:54:06.269Z,12.40
2022-09-25T18:56:34.538Z,14.20
2022-09-25T18:59:03.839Z,10.53
2022-09-25T19:01:30.423Z,12.27
2022-09-25T19:03:56.861Z,12.37
2022-09-25T19:06:23.185Z,9.93
2022-09-25T19:08:53.207Z,13.93
2022-09-25T19:11:19.762Z,11.17
2022-09-25T19:13:46.378Z,13.07
2022-09-25T19:16:12.762Z,13.73
2022-09-25T19:18:39.137Z,12.33
2022-09-25T19:21:05.537Z,12.87
2022-09-25T19:23:33.971Z,11.90
2022-09-25T19:26:02.627Z,13.30
2022-09-25T19:28:30.062Z,13.37
2022-09-25T19:30:59.625Z,16.47
2022-09-25T19:33:28.313Z,21.83
2022-09-25T19:36:03.671Z,22.07
2022-09-25T19:38:31.318Z,18.53
2022-09-25T19:40:57.727Z,22.10
2022-09-25T19:43:24.124Z,13.70
2022-09-25T19:45:51.454Z,18.40
2022-09-25T19:48:18.034Z,21.93
2022-09-25T19:50:44.389Z,28.70
2022-09-25T19:53:11.121Z,29.70
2022-09-25T19:55:37.912Z,23.97
2022-09-25T19:58:04.655Z,18.50
2022-09-25T20:00:31.225Z,19.07
2022-09-25T20:02:57.651Z,21.27
2022-09-25T20:05:24.337Z,18.47
2022-09-25T20:07:51.146Z,17.47
2022-09-25T20:10:17.716Z,16.30
2022-09-25T20:12:44.060Z,18.63
2022-09-25T20:15:10.519Z,14.90
2022-09-25T20:17:36.854Z,16.00
2022-09-25T20:20:03.499Z,14.87
2022-09-25T20:22:31.428Z,16.30
2022-09-25T20:24:57.819Z,15.80
2022-09-25T20:27:25.767Z,12.20
2022-09-25T20:29:52.312Z,11.33
2022-09-25T20:32:18.770Z,14.80
2022-09-25T20:34:45.224Z,12.53
2022-09-25T20:37:11.540Z,13.47
2022-09-25T20:39:37.906Z,13.00
2022-09-25T20:42:04.322Z,18.07
2022-09-25T20:44:30.648Z,13.60
2022-09-25T20:46:57.048Z,14.43
2022-09-25T20:49:23.551Z,14.63
2022-09-25T20:51:49.891Z,13.67
2022-09-25T20:54:16.252Z,15.33
2022-09-25T20:56:45.672Z,17.70
2022-09-25T20:59:12.502Z,15.07
2022-09-25T21:01:40.800Z,16.80
2022-09-25T21:04:07.898Z,16.63
2022-09-25T21:06:35.733Z,15.73
2022-09-25T21:09:03.804Z,16.80
2022-09-25T21:11:31.171Z,16.43
2022-09-25T21:13:58.436Z,17.80
2022-09-25T21:16:25.804Z,18.40
2022-09-25T21:18:56.760Z,13.77
2022-09-25T21:21:24.798Z,13.20
2022-09-25T21:23:53.812Z,13.37
2022-09-25T21:26:20.800Z,12.63
2022-09-25T21:28:49.162Z,12.00
2022-09-25T21:31:16.689Z,12.80
2022-09-25T21:33:43.504Z,12.30
2022-09-25T21:36:11.285Z,10.03
2022-09-25T21:38:37.996Z,9.53
2022-09-25T21:41:05.611Z,11.17
2022-09-25T21:43:32.785Z,8.20
2022-09-25T21:46:03.136Z,10.83
2022-09-25T21:48:29.775Z,11.13
2022-09-25T21:50:58.100Z,10.20
2022-09-25T21:53:25.028Z,10.87
2022-09-25T21:56:05.650Z,10.83
2022-09-25T21:58:32.870Z,9.63
2022-09-25T22:01:03.325Z,12.10
2022-09-25T22:03:30.235Z,9.40
2022-09-25T22:06:04.313Z,11.37
2022-09-25T22:08:31.269Z,16.93
2022-09-25T22:10:58.537Z,9.53
2022-09-25T22:13:25.771Z,8.47
2022-09-25T22:16:21.602Z,9.27
2022-09-25T22:18:55.853Z,12.67
2022-09-25T22:21:24.073Z,11.07
2022-09-25T22:23:50.837Z,10.17
2022-09-25T22:26:17.778Z,11.50
2022-09-25T22:28:44.341Z,13.00
2022-09-25T22:31:13.715Z,10.00
2022-09-25T22:33:40.444Z,13.47
2022-09-25T22:36:07.693Z,12.50
2022-09-25T22:38:34.378Z,10.63
2022-09-25T22:41:04.582Z,10.63
2022-09-25T22:43:30.989Z,12.50
2022-09-25T22:45:57.618Z,9.53
2022-09-25T22:48:24.087Z,11.40
2022-09-25T22:50:54.658Z,10.73
2022-09-25T22:53:21.766Z,11.53
2022-09-25T22:55:48.115Z,10.17
2022-09-25T22:58:14.984Z,9.60
2022-09-25T23:00:46.368Z,10.47
2022-09-25T23:03:13.161Z,11.97
2022-09-25T23:05:39.924Z,12.30
2022-09-25T23:08:07.566Z,11.30
2022-09-25T23:10:55.221Z,8.17
2022-09-25T23:13:21.441Z,10.53
2022-09-25T23:15:47.803Z,11.90
2022-09-25T23:18:14.213Z,10.20
2022-09-25T23:20:40.633Z,7.23
2022-09-25T23:23:06.966Z,11.37
2022-09-25T23:25:34.009Z,9.30
2022-09-25T23:28:00.953Z,9.47
2022-09-25T23:30:27.875Z,7.23
2022-09-25T23:32:54.229Z,8.13
2022-09-25T23:35:20.607Z,20.23
2022-09-25T23:37:46.979Z,20.53
2022-09-25T23:40:15.635Z,8.27
2022-09-25T23:42:43.278Z,8.27
2022-09-25T23:45:10.478Z,10.73
2022-09-25T23:47:36.831Z,22.03
2022-09-25T23:50:04.808Z,10.53
2022-09-25T23:52:31.443Z,9.93
2022-09-25T23:54:58.482Z,12.83
2022-09-25T23:57:24.809Z,20.43
2022-09-25T23:59:51.129Z,21.23
